KSLN/SLN METAR and TAF weather

Enter ICAO airport designator
Station Type Date Time Source
KSLN METAR 2018/12/17 15:53 UTC NOAA

KSLN 171553Z 21006KT 10SM CLR 03/00 A3031 RMK AO2 SLP275 T00280000


Station Type Date Time Source
KSLN Decoded METAR 2018/12/17 15:53 UTC NOAA

SALINA MUNICIPAL AIRPORT, KS, United States (KSLN) 38-47N 97-39W 385M
Dec 17, 2018 - 10:53 AM EST / 2018.12.17 1553 UTC
Wind: from the SSW (210 degrees) at 7 MPH (6 KT):0
Visibility: 10 mile(s):0
Sky conditions: clear
Temperature: 37.0 F (2.8 C)
Dew Point: 32.0 F (0.0 C)
Relative Humidity: 81%
Pressure (altimeter): 30.31 in. Hg (1026 hPa)
ob: KSLN 171553Z 21006KT 10SM CLR 03/00 A3031 RMK AO2 SLP275 T00280000
cycle: 16

Station Type Date Time Source
KSLN TAF 2018/12/17 12:22 UTC NOAA

TAF KSLN 171120Z 1712/1812 VRB03KT P6SM SKC
FM171700 17007KT P6SM SKC
FM180900 16006KT P6SM BKN200


Example: see airport list